createdAt,value
2018-01-10T00:01:09.796Z,51.75
2018-01-10T00:03:38.071Z,54.05
2018-01-10T00:06:06.348Z,51.55
2018-01-10T00:08:34.597Z,50.78
2018-01-10T00:11:02.088Z,55.47
2018-01-10T00:13:29.641Z,54.47
2018-01-10T00:15:57.130Z,49.53
2018-01-10T00:18:24.619Z,47.60
2018-01-10T00:20:52.100Z,52.17
2018-01-10T00:23:20.356Z,50.58
2018-01-10T00:25:47.927Z,49.25
2018-01-10T00:28:16.188Z,48.95
2018-01-10T00:30:43.682Z,56.47
2018-01-10T00:33:11.165Z,55.50
2018-01-10T00:35:38.647Z,63.75
2018-01-10T00:38:06.233Z,54.13
2018-01-10T00:40:33.715Z,52.40
2018-01-10T00:43:01.211Z,56.92
2018-01-10T00:45:28.715Z,59.75
2018-01-10T00:47:56.972Z,64.65
2018-01-10T00:50:24.567Z,51.67
2018-01-10T00:52:52.108Z,57.95
2018-01-10T00:55:20.395Z,61.70
2018-01-10T00:57:48.660Z,64.30
2018-01-10T01:00:16.939Z,55.63
2018-01-10T01:02:45.187Z,55.25
2018-01-10T01:05:12.776Z,49.15
2018-01-10T01:07:41.033Z,55.45
2018-01-10T01:10:08.621Z,62.17
2018-01-10T01:12:36.128Z,56.83
2018-01-10T01:15:04.397Z,54.08
2018-01-10T01:17:31.884Z,66.53
2018-01-10T01:19:59.447Z,61.33
2018-01-10T01:22:27.719Z,58.47
2018-01-10T01:24:55.207Z,54.70
2018-01-10T01:27:22.683Z,58.75
2018-01-10T01:29:50.199Z,57.83
2018-01-10T01:32:18.457Z,62.65
2018-01-10T01:34:45.968Z,66.93
2018-01-10T01:37:13.501Z,57.88
2018-01-10T01:39:41.768Z,61.78
2018-01-10T01:42:10.040Z,57.38
2018-01-10T01:44:38.461Z,61.88
2018-01-10T01:47:05.948Z,64.28
2018-01-10T01:49:33.436Z,67.25
2018-01-10T01:52:01.683Z,56.37
2018-01-10T01:54:29.175Z,56.63
2018-01-10T01:56:57.433Z,57.83
2018-01-10T01:59:24.941Z,61.03
2018-01-10T02:01:52.436Z,55.88
2018-01-10T02:04:19.925Z,63.13
2018-01-10T02:06:48.224Z,59.75
2018-01-10T02:09:15.709Z,66.07
2018-01-10T02:11:43.240Z,63.42
2018-01-10T02:14:10.773Z,66.05
2018-01-10T02:16:39.153Z,65.30
2018-01-10T02:19:07.436Z,63.58
2018-01-10T02:21:34.989Z,61.25
2018-01-10T02:24:03.253Z,64.80
2018-01-10T02:26:31.509Z,68.12
2018-01-10T02:28:59.798Z,61.25
2018-01-10T02:31:28.049Z,59.70
2018-01-10T02:33:55.548Z,60.20
2018-01-10T02:36:23.799Z,59.22
2018-01-10T02:38:51.375Z,59.78
2018-01-10T02:41:19.633Z,57.62
2018-01-10T02:43:47.292Z,63.00
2018-01-10T02:46:14.783Z,61.15
2018-01-10T02:48:42.282Z,63.90
2018-01-10T02:51:09.789Z,62.22
2018-01-10T02:53:38.044Z,63.90
2018-01-10T02:56:05.620Z,59.13
2018-01-10T02:58:33.879Z,78.80
2018-01-10T03:01:02.148Z,67.75
2018-01-10T03:03:29.631Z,73.75
2018-01-10T03:05:57.891Z,71.97
2018-01-10T03:08:25.461Z,71.45
2018-01-10T03:10:53.731Z,72.12
2018-01-10T03:13:22.017Z,73.93
2018-01-10T03:15:50.283Z,75.87
2018-01-10T03:18:18.569Z,69.53
2018-01-10T03:20:46.842Z,83.47
2018-01-10T03:23:15.097Z,74.97
2018-01-10T03:25:42.598Z,70.30
2018-01-10T03:28:10.100Z,67.82
2018-01-10T03:30:37.581Z,79.80
2018-01-10T03:33:05.840Z,79.45
2018-01-10T03:35:33.518Z,79.55
2018-01-10T03:38:01.768Z,84.87
2018-01-10T03:40:29.251Z,71.35
2018-01-10T03:42:57.511Z,87.07
2018-01-10T03:45:24.991Z,73.25
2018-01-10T03:47:53.263Z,92.62
2018-01-10T03:50:21.568Z,85.32
2018-01-10T03:52:49.098Z,81.80
2018-01-10T03:55:17.348Z,84.68
2018-01-10T03:57:44.933Z,84.47
2018-01-10T04:00:13.188Z,77.45
2018-01-10T04:02:40.774Z,86.85
2018-01-10T04:05:08.261Z,99.40
2018-01-10T04:07:35.751Z,85.97
2018-01-10T04:10:03.246Z,82.65
2018-01-10T04:12:31.500Z,88.12
2018-01-10T04:14:59.065Z,89.37
2018-01-10T04:17:27.372Z,99.03
2018-01-10T04:19:54.856Z,94.25
2018-01-10T04:22:22.340Z,89.30
2018-01-10T04:24:49.831Z,81.60
2018-01-10T04:27:17.317Z,86.68
2018-01-10T04:29:44.832Z,92.50
2018-01-10T04:32:13.140Z,86.65
2018-01-10T04:34:40.641Z,95.00
2018-01-10T04:37:08.261Z,78.53
2018-01-10T04:39:35.745Z,87.57
2018-01-10T04:42:03.261Z,92.88
2018-01-10T04:44:30.747Z,86.25
2018-01-10T04:46:58.232Z,87.25
2018-01-10T04:49:25.716Z,79.85
2018-01-10T04:51:53.987Z,81.70
2018-01-10T04:54:22.285Z,86.28
2018-01-10T04:56:49.824Z,92.78
2018-01-10T04:59:18.072Z,74.18
2018-01-10T05:01:45.653Z,95.47
2018-01-10T05:04:13.909Z,126.15
2018-01-10T05:06:42.184Z,89.90
2018-01-10T05:09:09.745Z,83.10
2018-01-10T05:11:37.205Z,77.43
2018-01-10T05:14:04.682Z,70.55
2018-01-10T05:16:32.914Z,82.75
2018-01-10T05:19:00.380Z,95.50
2018-01-10T05:21:27.849Z,83.07
2018-01-10T05:23:55.354Z,83.55
2018-01-10T05:26:22.818Z,93.57
2018-01-10T05:28:50.284Z,76.93
2018-01-10T05:31:17.759Z,100.72
2018-01-10T05:33:45.220Z,88.82
2018-01-10T05:36:12.799Z,78.62
2018-01-10T05:38:40.301Z,75.55
2018-01-10T05:41:07.912Z,79.12
2018-01-10T05:43:35.465Z,89.82
2018-01-10T05:46:03.028Z,76.03
2018-01-10T05:48:30.500Z,71.90
2018-01-10T05:50:58.732Z,75.78
2018-01-10T05:53:26.196Z,74.25
2018-01-10T05:55:54.448Z,83.28
2018-01-10T05:58:21.950Z,76.15
2018-01-10T06:00:49.424Z,68.20
2018-01-10T06:03:17.661Z,79.93
2018-01-10T06:05:45.237Z,87.40
2018-01-10T06:08:12.716Z,91.00
2018-01-10T06:10:40.970Z,94.97
2018-01-10T06:13:08.487Z,82.00
2018-01-10T06:15:35.973Z,89.68
2018-01-10T06:18:03.454Z,87.62
2018-01-10T06:20:31.696Z,88.57
2018-01-10T06:22:59.168Z,73.60
2018-01-10T06:25:28.146Z,90.62
2018-01-10T06:27:57.661Z,92.80
2018-01-10T06:30:25.910Z,92.22
2018-01-10T06:32:53.397Z,86.97
2018-01-10T06:35:20.879Z,80.72
2018-01-10T06:37:49.229Z,64.72
2018-01-10T06:40:16.786Z,71.95
2018-01-10T06:42:44.244Z,72.70
2018-01-10T06:45:11.721Z,65.40
2018-01-10T06:47:39.980Z,69.30
2018-01-10T06:50:07.459Z,72.62
2018-01-10T06:52:35.688Z,68.12
2018-01-10T06:55:03.169Z,80.93
2018-01-10T06:57:30.657Z,75.53
2018-01-10T06:59:58.116Z,81.25
2018-01-10T07:02:25.641Z,71.90
2018-01-10T07:04:53.100Z,70.80
2018-01-10T07:07:20.564Z,71.55
2018-01-10T07:09:48.832Z,76.35
2018-01-10T07:12:16.293Z,87.43
2018-01-10T07:14:43.851Z,71.65
2018-01-10T07:17:11.312Z,65.12
2018-01-10T07:19:39.556Z,62.40
2018-01-10T07:22:07.020Z,82.45
2018-01-10T07:24:34.596Z,65.28
2018-01-10T07:27:02.153Z,85.40
2018-01-10T07:29:29.641Z,80.18
2018-01-10T07:31:57.889Z,88.85
2018-01-10T07:34:26.152Z,77.05
2018-01-10T07:36:53.608Z,62.45
2018-01-10T07:39:21.084Z,74.57
2018-01-10T07:41:49.316Z,55.22
2018-01-10T07:44:16.794Z,71.15
2018-01-10T07:46:44.259Z,65.12
2018-01-10T07:49:11.724Z,67.43
2018-01-10T07:51:39.188Z,59.75
2018-01-10T07:54:07.448Z,59.20
2018-01-10T07:56:35.368Z,65.03
2018-01-10T07:59:02.920Z,50.40
2018-01-10T08:01:30.455Z,57.80
2018-01-10T08:03:58.710Z,54.67
2018-01-10T08:06:26.269Z,57.15
2018-01-10T08:08:53.736Z,64.00
2018-01-10T08:11:21.956Z,55.47
2018-01-10T08:13:49.507Z,52.05
2018-01-10T08:16:16.964Z,65.62
2018-01-10T08:18:44.420Z,53.72
2018-01-10T08:21:12.037Z,54.60
2018-01-10T08:23:39.644Z,68.28
2018-01-10T08:26:07.153Z,66.45
2018-01-10T08:28:34.977Z,57.58
2018-01-10T08:31:02.580Z,62.88
2018-01-10T08:33:30.054Z,59.70
2018-01-10T08:35:57.548Z,59.92
2018-01-10T08:38:25.008Z,63.33
2018-01-10T08:40:52.477Z,69.87
2018-01-10T08:43:19.954Z,59.63
2018-01-10T08:45:47.425Z,60.03
2018-01-10T08:48:15.761Z,67.20
2018-01-10T08:50:43.218Z,62.88
2018-01-10T08:53:10.693Z,64.97
2018-01-10T08:55:39.750Z,57.25
2018-01-10T08:58:07.215Z,65.57
2018-01-10T09:00:34.691Z,67.03
2018-01-10T09:03:02.149Z,58.35
2018-01-10T09:05:29.730Z,52.30
2018-01-10T09:07:57.289Z,46.63
2018-01-10T09:10:24.842Z,60.28
2018-01-10T09:12:52.310Z,59.60
2018-01-10T09:15:19.769Z,60.30
2018-01-10T09:17:48.043Z,45.28
2018-01-10T09:20:15.533Z,56.78
2018-01-10T09:22:43.018Z,53.83
2018-01-10T09:25:10.484Z,82.50
2018-01-10T09:27:37.944Z,52.38
2018-01-10T09:30:05.416Z,55.90
2018-01-10T09:32:32.888Z,56.05
2018-01-10T09:35:00.420Z,52.15
2018-01-10T09:37:27.884Z,55.42
2018-01-10T09:39:55.463Z,52.25
2018-01-10T09:42:23.701Z,55.60
2018-01-10T09:44:51.274Z,51.17
2018-01-10T09:47:19.508Z,51.67
2018-01-10T09:49:46.973Z,52.20
2018-01-10T09:52:14.433Z,50.50
2018-01-10T09:54:41.908Z,52.10
2018-01-10T09:57:09.454Z,52.38
2018-01-10T09:59:36.919Z,58.40
2018-01-10T10:02:04.368Z,64.78
2018-01-10T10:04:31.839Z,53.58
2018-01-10T10:06:59.300Z,63.08
2018-01-10T10:09:26.765Z,50.85
2018-01-10T10:11:54.382Z,54.65
2018-01-10T10:14:21.885Z,51.90
2018-01-10T10:16:49.445Z,51.17
2018-01-10T10:19:16.905Z,57.85
2018-01-10T10:21:44.385Z,58.70
2018-01-10T10:24:12.618Z,52.58
2018-01-10T10:26:40.089Z,51.03
2018-01-10T10:29:07.648Z,55.10
2018-01-10T10:31:35.205Z,57.65
2018-01-10T10:34:02.767Z,48.30
2018-01-10T10:36:30.252Z,58.38
2018-01-10T10:38:58.472Z,68.10
2018-01-10T10:41:25.949Z,53.08
2018-01-10T10:43:53.512Z,57.00
2018-01-10T10:46:20.966Z,53.40
2018-01-10T10:48:48.431Z,46.45
2018-01-10T10:51:15.889Z,60.12
2018-01-10T10:53:43.445Z,56.33
2018-01-10T10:56:11.677Z,53.38
2018-01-10T10:58:39.141Z,53.28
2018-01-10T11:01:06.620Z,47.33
2018-01-10T11:03:34.199Z,54.10
2018-01-10T11:06:01.660Z,49.47
2018-01-10T11:08:29.916Z,53.92
2018-01-10T11:10:57.496Z,46.85
2018-01-10T11:13:25.757Z,48.30
2018-01-10T11:15:53.318Z,51.08
2018-01-10T11:18:20.788Z,49.42
2018-01-10T11:20:49.024Z,49.17
2018-01-10T11:23:16.488Z,55.88
2018-01-10T11:25:44.061Z,54.58
2018-01-10T11:28:24.287Z,47.97
2018-01-10T11:30:51.774Z,45.12
2018-01-10T11:33:19.238Z,48.92
2018-01-10T11:35:46.700Z,47.17
2018-01-10T11:38:14.240Z,46.28
2018-01-10T11:40:41.810Z,51.20
2018-01-10T11:43:09.283Z,51.42
2018-01-10T11:45:37.516Z,61.35
2018-01-10T11:48:04.975Z,56.28
2018-01-10T11:50:32.553Z,56.33
2018-01-10T11:53:00.109Z,54.47
2018-01-10T11:55:27.696Z,54.50
2018-01-10T11:57:55.928Z,50.25
2018-01-10T12:00:23.505Z,55.45
2018-01-10T12:02:50.970Z,57.33
2018-01-10T12:05:18.520Z,59.78
2018-01-10T12:07:46.080Z,57.33
2018-01-10T12:10:13.641Z,53.92
2018-01-10T12:12:41.096Z,54.47
2018-01-10T12:15:08.561Z,49.92
2018-01-10T12:17:36.112Z,55.47
2018-01-10T12:20:03.677Z,57.42
2018-01-10T12:22:31.241Z,55.58
2018-01-10T12:24:58.796Z,51.30
2018-01-10T12:27:26.360Z,44.25
2018-01-10T12:29:53.924Z,47.55
2018-01-10T12:32:22.203Z,49.53
2018-01-10T12:34:50.448Z,47.60
2018-01-10T12:37:17.936Z,44.75
2018-01-10T12:39:46.180Z,42.90
2018-01-10T12:42:13.672Z,47.58
2018-01-10T12:44:41.196Z,44.58
2018-01-10T12:47:08.676Z,41.97
2018-01-10T12:49:36.928Z,44.87
2018-01-10T12:52:04.402Z,46.67
2018-01-10T12:57:13.436Z,42.17
2018-01-10T12:59:40.992Z,45.10
2018-01-10T13:02:08.476Z,40.60
2018-01-10T13:04:36.720Z,52.80
2018-01-10T13:07:04.285Z,47.03
2018-01-10T13:09:31.768Z,49.30
2018-01-10T13:12:00.028Z,62.93
2018-01-10T13:14:28.285Z,51.67
2018-01-10T13:16:55.757Z,58.97
2018-01-10T13:19:23.239Z,58.75
2018-01-10T13:21:51.481Z,57.47
2018-01-10T13:24:18.995Z,57.33
2018-01-10T13:26:46.453Z,62.50
2018-01-10T13:29:13.960Z,64.12
2018-01-10T13:31:41.409Z,64.78
2018-01-10T13:34:10.381Z,68.53
2018-01-10T13:36:37.849Z,77.43
2018-01-10T13:39:05.312Z,77.65
2018-01-10T13:41:32.874Z,74.35
2018-01-10T13:44:00.356Z,76.90
2018-01-10T13:46:28.608Z,79.35
2018-01-10T13:48:56.126Z,71.93
2018-01-10T13:51:23.633Z,70.25
2018-01-10T13:53:51.884Z,70.60
2018-01-10T13:56:19.360Z,63.20
2018-01-10T13:58:46.833Z,67.85
2018-01-10T14:01:15.096Z,60.55
2018-01-10T14:03:42.561Z,65.40
2018-01-10T14:06:10.799Z,68.43
2018-01-10T14:08:38.265Z,68.00
2018-01-10T14:11:05.785Z,70.80
2018-01-10T14:13:33.254Z,62.72
2018-01-10T14:16:00.715Z,64.75
2018-01-10T14:18:28.197Z,78.18
2018-01-10T14:20:55.716Z,69.80
2018-01-10T14:23:23.185Z,76.90
2018-01-10T14:25:50.708Z,73.95
2018-01-10T14:28:18.183Z,69.40
2018-01-10T14:30:45.640Z,68.15
2018-01-10T14:33:13.117Z,54.53
2018-01-10T14:35:40.568Z,60.63
2018-01-10T14:38:08.060Z,64.57
2018-01-10T14:40:35.525Z,67.82
2018-01-10T14:43:02.998Z,66.12
2018-01-10T14:45:31.273Z,64.28
2018-01-10T14:47:59.504Z,69.93
2018-01-10T14:50:26.982Z,75.62
2018-01-10T14:55:28.441Z,73.82
2018-01-10T14:57:55.897Z,77.70
2018-01-10T15:00:23.393Z,76.37
2018-01-10T15:02:51.636Z,76.20
2018-01-10T15:05:19.194Z,97.72
2018-01-10T15:07:46.711Z,76.82
2018-01-10T15:10:14.896Z,81.45
2018-01-10T15:12:42.388Z,81.85
2018-01-10T15:15:09.956Z,80.35
2018-01-10T15:17:37.415Z,67.75
2018-01-10T15:20:05.729Z,79.95
2018-01-10T15:22:33.184Z,86.82
2018-01-10T15:25:00.649Z,80.20
2018-01-10T15:27:28.129Z,84.20
2018-01-10T15:29:55.591Z,70.68
2018-01-10T15:32:23.052Z,74.82
2018-01-10T15:34:50.508Z,74.82
2018-01-10T15:37:19.488Z,67.18
2018-01-10T15:39:46.949Z,58.05
2018-01-10T15:42:14.437Z,69.75
2018-01-10T15:44:42.690Z,91.10
2018-01-10T15:47:10.251Z,58.90
2018-01-10T15:49:37.719Z,66.70
2018-01-10T15:52:05.289Z,90.70
2018-01-10T15:54:33.546Z,69.18
2018-01-10T15:57:01.017Z,48.50
2018-01-10T15:59:29.301Z,62.97
2018-01-10T16:01:57.528Z,53.30
2018-01-10T16:04:24.995Z,58.55
2018-01-10T16:06:52.956Z,62.97
2018-01-10T16:09:21.247Z,58.30
2018-01-10T16:11:48.813Z,55.05
2018-01-10T16:14:16.371Z,66.15
2018-01-10T16:16:43.848Z,57.33
2018-01-10T16:19:12.088Z,53.17
2018-01-10T16:21:39.558Z,63.65
2018-01-10T16:24:07.025Z,68.87
2018-01-10T16:26:34.661Z,70.47
2018-01-10T16:29:02.137Z,54.90
2018-01-10T16:31:29.691Z,59.60
2018-01-10T16:33:57.207Z,73.70
2018-01-10T16:36:24.773Z,49.38
2018-01-10T16:38:52.260Z,62.75
2018-01-10T16:41:19.827Z,43.47
2018-01-10T16:43:47.280Z,56.45
2018-01-10T16:46:14.746Z,66.28
2018-01-10T16:48:42.998Z,54.28
2018-01-10T16:51:10.569Z,73.75
2018-01-10T16:53:38.813Z,66.10
2018-01-10T16:56:06.289Z,63.22
2018-01-10T16:58:33.760Z,51.78
2018-01-10T17:01:01.236Z,79.80
2018-01-10T17:03:29.488Z,70.82
2018-01-10T17:05:57.062Z,80.03
2018-01-10T17:08:24.612Z,55.58
2018-01-10T17:10:52.068Z,69.20
2018-01-10T17:13:19.682Z,65.82
2018-01-10T17:15:47.187Z,95.47
2018-01-10T17:18:14.657Z,85.38
2018-01-10T17:20:42.912Z,55.05
2018-01-10T17:23:10.476Z,51.35
2018-01-10T17:25:38.028Z,48.38
2018-01-10T17:28:05.489Z,55.80
2018-01-10T17:30:32.949Z,117.90
2018-01-10T17:33:00.508Z,110.78
2018-01-10T17:35:28.010Z,68.43
2018-01-10T17:37:55.432Z,68.70
2018-01-10T17:40:22.976Z,53.87
2018-01-10T17:42:50.505Z,75.93
2018-01-10T17:45:17.992Z,73.82
2018-01-10T17:47:45.556Z,54.00
2018-01-10T17:50:13.117Z,55.63
2018-01-10T17:52:40.581Z,86.78
2018-01-10T17:55:08.044Z,66.43
2018-01-10T17:57:36.277Z,94.50
2018-01-10T18:00:03.749Z,62.88
2018-01-10T18:02:31.343Z,51.05
2018-01-10T18:04:59.573Z,78.32
2018-01-10T18:07:27.054Z,48.75
2018-01-10T18:09:54.601Z,49.55
2018-01-10T18:12:22.837Z,57.83
2018-01-10T18:14:50.421Z,49.35
2018-01-10T18:17:17.905Z,66.50
2018-01-10T18:19:45.455Z,73.90
2018-01-10T18:22:12.920Z,49.95
2018-01-10T18:24:40.484Z,49.28
2018-01-10T18:27:07.940Z,87.65
2018-01-10T18:29:36.213Z,56.85
2018-01-10T18:32:03.681Z,79.35
2018-01-10T18:34:31.958Z,73.05
2018-01-10T18:36:59.393Z,52.20
2018-01-10T18:39:26.952Z,61.37
2018-01-10T18:41:54.427Z,58.22
2018-01-10T18:44:22.685Z,51.80
2018-01-10T18:46:50.360Z,47.40
2018-01-10T18:49:18.580Z,75.85
2018-01-10T18:51:46.057Z,75.47
2018-01-10T18:54:13.536Z,55.92
2018-01-10T18:56:41.005Z,71.55
2018-01-10T18:59:08.557Z,63.40
2018-01-10T19:01:36.178Z,76.68
2018-01-10T19:04:03.684Z,63.50
2018-01-10T19:06:31.221Z,61.05
2018-01-10T19:09:00.197Z,60.33
2018-01-10T19:11:27.664Z,58.05
2018-01-10T19:13:55.131Z,54.00
2018-01-10T19:16:22.604Z,52.03
2018-01-10T19:18:50.874Z,53.08
2018-01-10T19:21:18.340Z,46.67
2018-01-10T19:23:46.588Z,50.92
2018-01-10T19:26:14.185Z,48.17
2018-01-10T19:28:41.844Z,51.42
2018-01-10T19:31:10.089Z,61.17
2018-01-10T19:33:37.796Z,59.35
2018-01-10T19:36:05.251Z,59.20
2018-01-10T19:38:32.716Z,70.00
2018-01-10T19:41:00.177Z,57.47
2018-01-10T19:43:27.653Z,87.50
2018-01-10T19:45:55.143Z,75.90
2018-01-10T19:48:22.631Z,76.82
2018-01-10T19:50:50.096Z,64.97
2018-01-10T19:53:17.745Z,69.78
2018-01-10T19:55:45.264Z,66.53
2018-01-10T19:58:13.000Z,71.00
2018-01-10T20:00:40.512Z,81.15
2018-01-10T20:03:08.782Z,55.35
2018-01-10T20:05:36.256Z,55.03
2018-01-10T20:08:03.804Z,62.00
2018-01-10T20:10:32.226Z,64.47
2018-01-10T20:12:59.727Z,52.15
2018-01-10T20:15:27.204Z,61.85
2018-01-10T20:17:55.507Z,63.05
2018-01-10T20:20:22.974Z,64.15
2018-01-10T20:22:50.828Z,67.35
2018-01-10T20:25:18.308Z,64.53
2018-01-10T20:27:45.788Z,58.05
2018-01-10T20:30:13.267Z,71.20
2018-01-10T20:32:41.510Z,59.80
2018-01-10T20:35:08.982Z,56.53
2018-01-10T20:37:36.444Z,58.05
2018-01-10T20:40:04.705Z,61.97
2018-01-10T20:42:32.185Z,57.88
2018-01-10T20:45:00.410Z,60.50
2018-01-10T20:47:27.882Z,51.08
2018-01-10T20:49:55.341Z,70.62
2018-01-10T20:52:22.808Z,56.25
2018-01-10T20:54:50.377Z,54.28
2018-01-10T20:57:17.845Z,59.58
2018-01-10T20:59:46.104Z,55.35
2018-01-10T21:02:13.618Z,52.60
2018-01-10T21:04:41.890Z,58.38
2018-01-10T21:07:09.358Z,62.95
2018-01-10T21:09:36.841Z,74.20
2018-01-10T21:12:04.313Z,65.87
2018-01-10T21:14:31.869Z,66.30
2018-01-10T21:17:00.130Z,77.30
2018-01-10T21:19:27.593Z,61.05
2018-01-10T21:21:55.062Z,63.45
2018-01-10T21:24:22.521Z,49.53
2018-01-10T21:26:50.748Z,61.72
2018-01-10T21:29:18.220Z,65.82
2018-01-10T21:31:45.689Z,54.72
2018-01-10T21:34:13.168Z,60.92
2018-01-10T21:36:40.640Z,67.12
2018-01-10T21:39:08.110Z,52.33
2018-01-10T21:41:35.563Z,60.38
2018-01-10T21:44:03.036Z,65.37
2018-01-10T21:46:30.500Z,70.57
2018-01-10T21:48:57.977Z,59.38
2018-01-10T21:51:25.477Z,57.05
2018-01-10T21:53:53.732Z,53.72
2018-01-10T21:56:22.006Z,74.40
2018-01-10T21:58:49.664Z,70.50
2018-01-10T22:01:17.277Z,62.38
2018-01-10T22:03:44.769Z,57.55
2018-01-10T22:06:12.230Z,59.58
2018-01-10T22:08:39.696Z,62.55
2018-01-10T22:11:07.252Z,73.25
2018-01-10T22:13:34.804Z,67.53
2018-01-10T22:16:02.531Z,65.30
2018-01-10T22:18:30.049Z,64.28
2018-01-10T22:20:58.309Z,72.70
2018-01-10T22:23:26.590Z,71.35
2018-01-10T22:25:54.056Z,67.30
2018-01-10T22:28:22.290Z,61.33
2018-01-10T22:30:49.829Z,65.22
2018-01-10T22:33:17.328Z,77.80
2018-01-10T22:35:44.840Z,68.82
2018-01-10T22:38:12.344Z,69.30
2018-01-10T22:40:39.804Z,66.40
2018-01-10T22:43:07.477Z,70.18
2018-01-10T22:45:35.787Z,84.13
2018-01-10T22:48:03.301Z,87.80
2018-01-10T22:50:30.894Z,111.50
2018-01-10T22:52:58.357Z,102.38
2018-01-10T22:55:25.882Z,63.47
2018-01-10T22:57:54.109Z,65.85
2018-01-10T23:00:26.435Z,71.43
2018-01-10T23:02:54.684Z,74.97
2018-01-10T23:05:22.164Z,80.12
2018-01-10T23:07:50.589Z,67.10
2018-01-10T23:10:18.054Z,57.83
2018-01-10T23:12:45.520Z,67.18
2018-01-10T23:15:12.984Z,63.97
2018-01-10T23:17:40.558Z,74.50
2018-01-10T23:20:08.124Z,77.75
2018-01-10T23:22:35.597Z,62.13
2018-01-10T23:25:03.829Z,64.62
2018-01-10T23:27:31.309Z,105.53
2018-01-10T23:29:58.922Z,65.82
2018-01-10T23:32:26.381Z,65.65
2018-01-10T23:34:53.849Z,90.43
2018-01-10T23:37:21.304Z,65.35
2018-01-10T23:39:48.777Z,62.78
2018-01-10T23:42:16.241Z,91.32
2018-01-10T23:44:43.759Z,72.72
2018-01-10T23:47:11.320Z,59.65
2018-01-10T23:49:38.825Z,80.97
2018-01-10T23:52:06.287Z,86.85
2018-01-10T23:54:33.836Z,70.25
2018-01-10T23:57:01.422Z,64.35
2018-01-10T23:59:29.645Z,73.28
